Woodbury, Texas
Current Conditions -  °F | °C
As of 2:35 AM on Sunday 23 Nov 2014 (Local Time) from KINJ Reporting Station
Scattered Clouds Scattered Clouds  
Wind Chill: 13°   Ceiling: Unl
Heat Index: 13°   Visibility: 7mi
Dew Point: 12°   Wind: 0mph
Humidity: 92%   Direction: NA
Pressure: 29.66"   Gusts: NA
Location:  32.0499°N, 97.1039°W
Report Text: KINJ 230835Z AUTO 00000KT 7SM SCT005 13/12 A2966 RMK AO2 T01300117
Loading
Personal Weather Stations






























Interactive Weather Map New forecast layout! Learn more

10-Day Weather Forecast

Advertisements
Track Severe Weather on mobile